sensor_id;sensor_type;location;lat;lon;timestamp;pressure;altitude;pressure_sealevel;temperature
77355;BMP280;66422;51.202;19.936;2023-07-31T00:09:21;98872.27;;;18.96
77355;BMP280;66422;51.202;19.936;2023-07-31T00:24:41;98857.74;;;19.08
77355;BMP280;66422;51.202;19.936;2023-07-31T00:40:00;98862.86;;;19.10
77355;BMP280;66422;51.202;19.936;2023-07-31T00:55:20;98886.60;;;18.99
77355;BMP280;66422;51.202;19.936;2023-07-31T01:10:48;98883.08;;;19.11
77355;BMP280;66422;51.202;19.936;2023-07-31T01:41:28;98896.61;;;19.00
77355;BMP280;66422;51.202;19.936;2023-07-31T01:56:48;98905.98;;;18.94
77355;BMP280;66422;51.202;19.936;2023-07-31T02:12:08;98917.48;;;19.01
77355;BMP280;66422;51.202;19.936;2023-07-31T02:27:27;98921.41;;;19.04
77355;BMP280;66422;51.202;19.936;2023-07-31T02:42:47;98917.29;;;19.05
77355;BMP280;66422;51.202;19.936;2023-07-31T02:58:07;98932.52;;;19.02
77355;BMP280;66422;51.202;19.936;2023-07-31T03:13:27;98950.93;;;19.13
77355;BMP280;66422;51.202;19.936;2023-07-31T03:28:46;98961.79;;;19.02
77355;BMP280;66422;51.202;19.936;2023-07-31T03:44:06;98968.49;;;19.13
77355;BMP280;66422;51.202;19.936;2023-07-31T03:59:25;98978.23;;;19.13
77355;BMP280;66422;51.202;19.936;2023-07-31T04:14:45;98981.48;;;19.20
77355;BMP280;66422;51.202;19.936;2023-07-31T04:30:05;99001.18;;;19.44
77355;BMP280;66422;51.202;19.936;2023-07-31T04:45:25;99008.20;;;19.96
77355;BMP280;66422;51.202;19.936;2023-07-31T05:00:44;99012.95;;;20.00
77355;BMP280;66422;51.202;19.936;2023-07-31T05:16:04;99019.83;;;19.74
77355;BMP280;66422;51.202;19.936;2023-07-31T05:31:24;99026.55;;;20.00
77355;BMP280;66422;51.202;19.936;2023-07-31T05:46:43;99063.41;;;21.43
77355;BMP280;66422;51.202;19.936;2023-07-31T06:02:03;99079.19;;;23.54
77355;BMP280;66422;51.202;19.936;2023-07-31T06:17:23;99100.60;;;24.91
77355;BMP280;66422;51.202;19.936;2023-07-31T06:32:42;99096.57;;;26.77
77355;BMP280;66422;51.202;19.936;2023-07-31T06:48:03;99076.73;;;25.65
77355;BMP280;66422;51.202;19.936;2023-07-31T07:03:23;99036.63;;;22.83
77355;BMP280;66422;51.202;19.936;2023-07-31T07:18:42;99034.67;;;23.36
77355;BMP280;66422;51.202;19.936;2023-07-31T07:34:02;99042.98;;;23.33
77355;BMP280;66422;51.202;19.936;2023-07-31T07:49:21;99045.86;;;22.98
77355;BMP280;66422;51.202;19.936;2023-07-31T08:04:44;99041.83;;;23.25
77355;BMP280;66422;51.202;19.936;2023-07-31T08:20:05;99044.19;;;23.42
77355;BMP280;66422;51.202;19.936;2023-07-31T08:35:26;99050.92;;;23.66
77355;BMP280;66422;51.202;19.936;2023-07-31T08:50:47;99063.42;;;24.57
77355;BMP280;66422;51.202;19.936;2023-07-31T09:06:07;99054.63;;;24.47
77355;BMP280;66422;51.202;19.936;2023-07-31T09:21:27;99047.30;;;25.55
77355;BMP280;66422;51.202;19.936;2023-07-31T09:36:49;99043.70;;;25.68
77355;BMP280;66422;51.202;19.936;2023-07-31T09:52:11;99034.53;;;26.23
77355;BMP280;66422;51.202;19.936;2023-07-31T10:07:37;99025.23;;;25.99
77355;BMP280;66422;51.202;19.936;2023-07-31T10:22:57;99011.55;;;26.06
77355;BMP280;66422;51.202;19.936;2023-07-31T10:38:18;99008.83;;;25.95
77355;BMP280;66422;51.202;19.936;2023-07-31T10:53:39;99000.23;;;26.30
77355;BMP280;66422;51.202;19.936;2023-07-31T11:08:59;98992.17;;;26.05
77355;BMP280;66422;51.202;19.936;2023-07-31T11:24:19;98982.82;;;26.64
77355;BMP280;66422;51.202;19.936;2023-07-31T11:39:39;98973.71;;;26.91
77355;BMP280;66422;51.202;19.936;2023-07-31T11:54:59;98970.60;;;26.11
77355;BMP280;66422;51.202;19.936;2023-07-31T12:10:23;98950.56;;;27.13
77355;BMP280;66422;51.202;19.936;2023-07-31T12:25:44;98938.44;;;26.40
77355;BMP280;66422;51.202;19.936;2023-07-31T12:41:04;98923.84;;;27.02
77355;BMP280;66422;51.202;19.936;2023-07-31T12:56:26;98904.61;;;26.78
77355;BMP280;66422;51.202;19.936;2023-07-31T13:11:46;98882.84;;;27.57
77355;BMP280;66422;51.202;19.936;2023-07-31T13:27:05;98864.52;;;26.11
77355;BMP280;66422;51.202;19.936;2023-07-31T13:42:25;98856.48;;;26.62
77355;BMP280;66422;51.202;19.936;2023-07-31T13:57:44;98837.05;;;26.89
77355;BMP280;66422;51.202;19.936;2023-07-31T14:13:04;98838.70;;;25.35
77355;BMP280;66422;51.202;19.936;2023-07-31T14:28:24;98831.73;;;25.51
77355;BMP280;66422;51.202;19.936;2023-07-31T14:43:43;98834.34;;;25.44
77355;BMP280;66422;51.202;19.936;2023-07-31T14:59:03;98831.98;;;25.07
77355;BMP280;66422;51.202;19.936;2023-07-31T15:14:23;98824.42;;;24.55
77355;BMP280;66422;51.202;19.936;2023-07-31T15:29:43;98810.13;;;24.62
77355;BMP280;66422;51.202;19.936;2023-07-31T15:45:02;98813.52;;;25.46
77355;BMP280;66422;51.202;19.936;2023-07-31T16:00:25;98810.98;;;25.37
77355;BMP280;66422;51.202;19.936;2023-07-31T16:15:44;98793.02;;;24.98
77355;BMP280;66422;51.202;19.936;2023-07-31T16:31:05;98778.36;;;24.85
77355;BMP280;66422;51.202;19.936;2023-07-31T16:46:25;98768.17;;;25.26
77355;BMP280;66422;51.202;19.936;2023-07-31T17:01:45;98762.45;;;25.53
77355;BMP280;66422;51.202;19.936;2023-07-31T17:17:06;98775.98;;;25.72
77355;BMP280;66422;51.202;19.936;2023-07-31T17:32:26;98778.43;;;25.01
77355;BMP280;66422;51.202;19.936;2023-07-31T17:47:45;98790.67;;;23.98
77355;BMP280;66422;51.202;19.936;2023-07-31T18:03:04;98791.80;;;23.55
77355;BMP280;66422;51.202;19.936;2023-07-31T18:18:26;98792.20;;;23.03
77355;BMP280;66422;51.202;19.936;2023-07-31T18:33:45;98798.70;;;22.24
77355;BMP280;66422;51.202;19.936;2023-07-31T18:49:05;98801.92;;;21.25
77355;BMP280;66422;51.202;19.936;2023-07-31T19:04:25;98812.73;;;20.09
77355;BMP280;66422;51.202;19.936;2023-07-31T19:19:44;98821.09;;;18.78
77355;BMP280;66422;51.202;19.936;2023-07-31T19:35:04;98826.20;;;18.78
77355;BMP280;66422;51.202;19.936;2023-07-31T19:50:24;98830.20;;;18.31
77355;BMP280;66422;51.202;19.936;2023-07-31T20:05:44;98817.95;;;18.53
77355;BMP280;66422;51.202;19.936;2023-07-31T20:21:07;98795.60;;;18.56
77355;BMP280;66422;51.202;19.936;2023-07-31T20:36:27;98783.77;;;18.39
77355;BMP280;66422;51.202;19.936;2023-07-31T20:51:47;98779.77;;;18.22
77355;BMP280;66422;51.202;19.936;2023-07-31T21:07:07;98760.94;;;18.04
77355;BMP280;66422;51.202;19.936;2023-07-31T21:22:30;98741.13;;;17.54
77355;BMP280;66422;51.202;19.936;2023-07-31T21:37:54;98717.27;;;17.65
77355;BMP280;66422;51.202;19.936;2023-07-31T21:53:14;98700.98;;;17.72
77355;BMP280;66422;51.202;19.936;2023-07-31T22:08:33;98688.05;;;17.03
77355;BMP280;66422;51.202;19.936;2023-07-31T22:23:53;98682.02;;;16.95
77355;BMP280;66422;51.202;19.936;2023-07-31T22:39:13;98669.83;;;16.79
77355;BMP280;66422;51.202;19.936;2023-07-31T22:54:34;98665.93;;;16.83
77355;BMP280;66422;51.202;19.936;2023-07-31T23:09:54;98666.70;;;16.64
77355;BMP280;66422;51.202;19.936;2023-07-31T23:25:14;98663.39;;;16.24
77355;BMP280;66422;51.202;19.936;2023-07-31T23:40:34;98653.52;;;16.24
77355;BMP280;66422;51.202;19.936;2023-07-31T23:55:54;98640.30;;;16.38
